BTI786 EYPA-EFHK
Flight info
| Callsign | BTI786 |
|---|---|
| Flight time | 0h 57m |
| Altitude | 37000 |
| Route | TIRIN DCT OKLAD DCT MILTA DCT NETNA DCT XANON DCT KEMET Q11 INTOR |
| Aircraft | A20N/M-SDE2E3FGHIRWXY/LB1 |
Departure
| Time | 2026-04-14 14:10 |
|---|---|
| Airport | Palanga International Airport (EYPA) |
Arrival
| Time | 2026-04-14 15:08 |
|---|---|
| Airport | Helsinki Vantaa Airport (EFHK) |
| Time | Latitude | Longitude | Altitude | Speed | Heading |
|---|---|---|---|---|---|
| 2026-04-14 13:54 | 55.96933 | 21.09593 | 39 ft | 0 kts | 288° |
| 2026-04-14 14:01 | 55.96936 | 21.09575 | 39 ft | 4 kts | 287° |
| 2026-04-14 14:01 | 55.96943 | 21.09531 | 39 ft | 1 kts | 285° |
| 2026-04-14 14:01 | 55.96944 | 21.09510 | 39 ft | 0 kts | 281° |
| 2026-04-14 14:02 | 55.96950 | 21.09505 | 39 ft | 1 kts | 353° |
| 2026-04-14 14:02 | 55.96970 | 21.09514 | 39 ft | 6 kts | 12° |
| 2026-04-14 14:02 | 55.97022 | 21.09535 | 39 ft | 7 kts | 12° |
| 2026-04-14 14:02 | 55.97059 | 21.09550 | 39 ft | 3 kts | 12° |
| 2026-04-14 14:03 | 55.97075 | 21.09543 | 39 ft | 2 kts | 315° |
| 2026-04-14 14:03 | 55.97088 | 21.09494 | 39 ft | 4 kts | 282° |
| 2026-04-14 14:03 | 55.97098 | 21.09408 | 39 ft | 7 kts | 282° |
| 2026-04-14 14:03 | 55.97106 | 21.09345 | 38 ft | 2 kts | 282° |
| 2026-04-14 14:04 | 55.97108 | 21.09327 | 38 ft | 3 kts | 270° |
| 2026-04-14 14:04 | 55.97096 | 21.09295 | 38 ft | 3 kts | 212° |
| 2026-04-14 14:04 | 55.97091 | 21.09292 | 38 ft | 2 kts | 196° |
| 2026-04-14 14:04 | 55.97106 | 21.09299 | 38 ft | 2 kts | 192° |
| 2026-04-14 14:05 | 55.97121 | 21.09305 | 38 ft | 2 kts | 193° |
| 2026-04-14 14:05 | 55.97135 | 21.09311 | 38 ft | 2 kts | 192° |
| 2026-04-14 14:05 | 55.97150 | 21.09316 | 38 ft | 2 kts | 192° |
| 2026-04-14 14:05 | 55.97160 | 21.09320 | 38 ft | 2 kts | 193° |
| 2026-04-14 14:06 | 55.97174 | 21.09326 | 38 ft | 2 kts | 192° |
| 2026-04-14 14:06 | 55.97189 | 21.09332 | 38 ft | 2 kts | 192° |
| 2026-04-14 14:06 | 55.97204 | 21.09338 | 38 ft | 2 kts | 192° |
| 2026-04-14 14:06 | 55.97218 | 21.09343 | 38 ft | 2 kts | 193° |
| 2026-04-14 14:07 | 55.97233 | 21.09349 | 38 ft | 2 kts | 192° |
| 2026-04-14 14:07 | 55.97248 | 21.09355 | 38 ft | 2 kts | 192° |
| 2026-04-14 14:07 | 55.97262 | 21.09361 | 38 ft | 2 kts | 192° |
| 2026-04-14 14:07 | 55.97277 | 21.09367 | 38 ft | 2 kts | 193° |
| 2026-04-14 14:08 | 55.97281 | 21.09368 | 38 ft | 0 kts | 192° |
| 2026-04-14 14:09 | 55.97212 | 21.09343 | 38 ft | 41 kts | 191° |
| 2026-04-14 14:09 | 55.96668 | 21.09127 | 39 ft | 117 kts | 191° |
| 2026-04-14 14:10 | 55.95730 | 21.08874 | 415 ft | 141 kts | 185° |
| 2026-04-14 14:10 | 55.94753 | 21.08508 | 983 ft | 150 kts | 187° |
| 2026-04-14 14:10 | 55.93743 | 21.08075 | 1642 ft | 154 kts | 186° |
| 2026-04-14 14:10 | 55.92674 | 21.07627 | 2241 ft | 165 kts | 186° |
| 2026-04-14 14:11 | 55.91520 | 21.07163 | 2759 ft | 181 kts | 186° |
| 2026-04-14 14:11 | 55.90247 | 21.06654 | 3291 ft | 198 kts | 187° |
| 2026-04-14 14:11 | 55.88860 | 21.05785 | 3712 ft | 230 kts | 211° |
| 2026-04-14 14:11 | 55.87890 | 21.03428 | 4373 ft | 255 kts | 250° |
| 2026-04-14 14:12 | 55.87840 | 21.00210 | 5062 ft | 275 kts | 285° |
| 2026-04-14 14:12 | 55.88600 | 20.97036 | 5817 ft | 286 kts | 296° |
| 2026-04-14 14:12 | 55.89500 | 20.93858 | 6665 ft | 293 kts | 295° |
| 2026-04-14 14:12 | 55.90328 | 20.90566 | 7621 ft | 294 kts | 291° |
| 2026-04-14 14:13 | 55.91055 | 20.87209 | 8605 ft | 294 kts | 289° |
| 2026-04-14 14:13 | 55.91724 | 20.83810 | 9571 ft | 295 kts | 288° |
| 2026-04-14 14:13 | 55.92377 | 20.80333 | 10449 ft | 297 kts | 287° |
| 2026-04-14 14:13 | 55.93030 | 20.76814 | 11063 ft | 312 kts | 289° |
| 2026-04-14 14:14 | 55.94089 | 20.73309 | 11452 ft | 331 kts | 313° |
| 2026-04-14 14:14 | 55.95982 | 20.70956 | 11906 ft | 346 kts | 340° |
| 2026-04-14 14:14 | 55.98394 | 20.70387 | 12476 ft | 354 kts | 7° |
| 2026-04-14 14:14 | 56.00773 | 20.71440 | 13295 ft | 356 kts | 17° |
| 2026-04-14 14:15 | 56.03097 | 20.72779 | 14017 ft | 358 kts | 17° |
| 2026-04-14 14:15 | 56.05457 | 20.74204 | 14723 ft | 362 kts | 19° |
| 2026-04-14 14:15 | 56.07778 | 20.75991 | 15409 ft | 365 kts | 24° |
| 2026-04-14 14:15 | 56.10018 | 20.78159 | 16152 ft | 369 kts | 27° |
| 2026-04-14 14:16 | 56.12249 | 20.80477 | 16805 ft | 373 kts | 27° |
| 2026-04-14 14:16 | 56.14484 | 20.82826 | 17420 ft | 377 kts | 27° |
| 2026-04-14 14:16 | 56.16724 | 20.85185 | 17996 ft | 380 kts | 27° |
| 2026-04-14 14:17 | 56.21292 | 20.89984 | 19222 ft | 385 kts | 27° |
| 2026-04-14 14:17 | 56.23609 | 20.92423 | 19804 ft | 389 kts | 26° |
| 2026-04-14 14:17 | 56.25954 | 20.94891 | 20364 ft | 392 kts | 26° |
| 2026-04-14 14:17 | 56.28301 | 20.97366 | 20931 ft | 395 kts | 26° |
| 2026-04-14 14:18 | 56.30666 | 20.99866 | 21521 ft | 397 kts | 26° |
| 2026-04-14 14:18 | 56.33044 | 21.02383 | 22055 ft | 400 kts | 26° |
| 2026-04-14 14:18 | 56.35452 | 21.04936 | 22567 ft | 403 kts | 26° |
| 2026-04-14 14:18 | 56.37851 | 21.07482 | 23060 ft | 406 kts | 26° |
| 2026-04-14 14:19 | 56.40299 | 21.10087 | 23604 ft | 408 kts | 26° |
| 2026-04-14 14:19 | 56.42733 | 21.12677 | 24129 ft | 411 kts | 26° |
| 2026-04-14 14:19 | 56.45175 | 21.15283 | 24623 ft | 414 kts | 26° |
| 2026-04-14 14:19 | 56.47672 | 21.17947 | 25095 ft | 418 kts | 26° |
| 2026-04-14 14:20 | 56.50191 | 21.20639 | 25573 ft | 421 kts | 26° |
| 2026-04-14 14:20 | 56.52685 | 21.23311 | 26037 ft | 423 kts | 26° |
| 2026-04-14 14:20 | 56.55223 | 21.26037 | 26503 ft | 426 kts | 26° |
| 2026-04-14 14:20 | 56.57746 | 21.28747 | 26938 ft | 428 kts | 26° |
| 2026-04-14 14:21 | 56.60336 | 21.31535 | 27342 ft | 432 kts | 26° |
| 2026-04-14 14:21 | 56.62906 | 21.34304 | 27753 ft | 434 kts | 26° |
| 2026-04-14 14:21 | 56.65482 | 21.37085 | 28138 ft | 436 kts | 26° |
| 2026-04-14 14:21 | 56.68119 | 21.39936 | 28516 ft | 439 kts | 26° |
| 2026-04-14 14:22 | 56.70726 | 21.42761 | 28859 ft | 441 kts | 25° |
| 2026-04-14 14:22 | 56.73358 | 21.45618 | 29164 ft | 444 kts | 25° |
| 2026-04-14 14:22 | 56.75991 | 21.48477 | 29474 ft | 445 kts | 26° |
| 2026-04-14 14:22 | 56.78637 | 21.51358 | 29774 ft | 447 kts | 25° |
| 2026-04-14 14:23 | 56.81320 | 21.54285 | 30128 ft | 447 kts | 25° |
| 2026-04-14 14:23 | 56.83959 | 21.57172 | 30514 ft | 446 kts | 25° |
| 2026-04-14 14:23 | 56.86601 | 21.60066 | 30918 ft | 444 kts | 25° |
| 2026-04-14 14:23 | 56.89222 | 21.62939 | 31279 ft | 443 kts | 25° |
| 2026-04-14 14:24 | 56.91864 | 21.65841 | 31632 ft | 441 kts | 26° |
| 2026-04-14 14:24 | 56.94479 | 21.68731 | 31973 ft | 440 kts | 26° |
| 2026-04-14 14:24 | 56.97089 | 21.71623 | 32294 ft | 439 kts | 26° |
| 2026-04-14 14:24 | 56.99690 | 21.74506 | 32629 ft | 438 kts | 26° |
| 2026-04-14 14:25 | 57.02273 | 21.77367 | 32918 ft | 437 kts | 26° |
| 2026-04-14 14:25 | 57.04870 | 21.80247 | 33225 ft | 435 kts | 26° |
| 2026-04-14 14:25 | 57.07433 | 21.83092 | 33506 ft | 434 kts | 26° |
| 2026-04-14 14:25 | 57.10014 | 21.85962 | 33785 ft | 433 kts | 26° |
| 2026-04-14 14:26 | 57.12560 | 21.88788 | 34075 ft | 432 kts | 26° |
| 2026-04-14 14:26 | 57.15134 | 21.91641 | 34349 ft | 431 kts | 26° |
| 2026-04-14 14:26 | 57.17672 | 21.94467 | 34620 ft | 430 kts | 26° |
| 2026-04-14 14:26 | 57.20231 | 21.97319 | 34818 ft | 430 kts | 26° |
| 2026-04-14 14:27 | 57.22781 | 22.00170 | 34961 ft | 430 kts | 26° |
| 2026-04-14 14:27 | 57.25341 | 22.03035 | 35105 ft | 431 kts | 27° |
| 2026-04-14 14:27 | 57.27876 | 22.05878 | 35254 ft | 431 kts | 27° |
| 2026-04-14 14:27 | 57.30431 | 22.08753 | 35413 ft | 432 kts | 27° |
| 2026-04-14 14:28 | 57.33001 | 22.11648 | 35567 ft | 432 kts | 27° |
| 2026-04-14 14:28 | 57.35533 | 22.14506 | 35709 ft | 433 kts | 27° |
| 2026-04-14 14:28 | 57.38105 | 22.17415 | 35834 ft | 433 kts | 27° |
| 2026-04-14 14:28 | 57.40679 | 22.20332 | 35970 ft | 434 kts | 28° |
| 2026-04-14 14:29 | 57.43223 | 22.23222 | 36128 ft | 434 kts | 28° |
| 2026-04-14 14:29 | 57.45775 | 22.26123 | 36280 ft | 434 kts | 28° |
| 2026-04-14 14:29 | 57.48341 | 22.29044 | 36393 ft | 435 kts | 28° |
| 2026-04-14 14:29 | 57.50935 | 22.32002 | 36505 ft | 435 kts | 28° |
| 2026-04-14 14:30 | 57.53511 | 22.34947 | 36633 ft | 436 kts | 28° |
| 2026-04-14 14:30 | 57.56077 | 22.37885 | 36766 ft | 436 kts | 28° |
| 2026-04-14 14:30 | 57.58658 | 22.40840 | 36880 ft | 437 kts | 29° |
| 2026-04-14 14:30 | 57.61241 | 22.43807 | 36995 ft | 438 kts | 28° |
| 2026-04-14 14:31 | 57.63794 | 22.46746 | 37112 ft | 439 kts | 29° |
| 2026-04-14 14:31 | 57.66399 | 22.49746 | 37238 ft | 439 kts | 29° |
| 2026-04-14 14:31 | 57.68968 | 22.52711 | 37347 ft | 440 kts | 29° |
| 2026-04-14 14:31 | 57.71581 | 22.55732 | 37393 ft | 441 kts | 29° |
| 2026-04-14 14:32 | 57.76765 | 22.61744 | 37409 ft | 441 kts | 29° |
| 2026-04-14 14:32 | 57.81950 | 22.67781 | 37398 ft | 442 kts | 30° |
| 2026-04-14 14:33 | 57.87160 | 22.73894 | 37409 ft | 442 kts | 30° |
| 2026-04-14 14:33 | 57.92354 | 22.79993 | 37410 ft | 442 kts | 30° |
| 2026-04-14 14:34 | 58.00129 | 22.89144 | 37410 ft | 442 kts | 30° |
| 2026-04-14 14:35 | 58.05317 | 22.95272 | 37419 ft | 442 kts | 30° |
| 2026-04-14 14:35 | 58.10508 | 23.01424 | 37416 ft | 443 kts | 31° |
| 2026-04-14 14:36 | 58.15710 | 23.07582 | 37422 ft | 443 kts | 30° |
| 2026-04-14 14:36 | 58.20920 | 23.13779 | 37429 ft | 443 kts | 31° |
| 2026-04-14 14:37 | 58.26121 | 23.20001 | 37432 ft | 443 kts | 31° |
| 2026-04-14 14:37 | 58.31293 | 23.26215 | 37432 ft | 443 kts | 31° |
| 2026-04-14 14:38 | 58.36492 | 23.32486 | 37440 ft | 443 kts | 31° |
| 2026-04-14 14:38 | 58.41664 | 23.38745 | 37432 ft | 443 kts | 31° |
| 2026-04-14 14:39 | 58.46838 | 23.45032 | 37437 ft | 443 kts | 31° |
| 2026-04-14 14:39 | 58.52023 | 23.51353 | 37436 ft | 443 kts | 31° |
| 2026-04-14 14:40 | 58.57188 | 23.57672 | 37444 ft | 443 kts | 31° |
| 2026-04-14 14:40 | 58.62361 | 23.64026 | 37445 ft | 443 kts | 31° |
| 2026-04-14 14:41 | 58.67518 | 23.70402 | 37442 ft | 444 kts | 32° |
| 2026-04-14 14:41 | 58.72690 | 23.76821 | 37443 ft | 444 kts | 32° |
| 2026-04-14 14:42 | 58.77840 | 23.83220 | 37442 ft | 444 kts | 32° |
| 2026-04-14 14:42 | 58.83025 | 23.89682 | 37443 ft | 444 kts | 32° |
| 2026-04-14 14:43 | 58.88189 | 23.96138 | 37442 ft | 444 kts | 32° |
| 2026-04-14 14:43 | 58.93352 | 24.02616 | 37436 ft | 444 kts | 32° |
| 2026-04-14 14:44 | 58.98508 | 24.09109 | 37435 ft | 445 kts | 32° |
| 2026-04-14 14:44 | 59.03665 | 24.15625 | 37451 ft | 445 kts | 32° |
| 2026-04-14 14:45 | 59.08839 | 24.22188 | 37450 ft | 445 kts | 32° |
| 2026-04-14 14:45 | 59.14017 | 24.28758 | 37447 ft | 445 kts | 32° |
| 2026-04-14 14:46 | 59.19191 | 24.35338 | 37452 ft | 445 kts | 32° |
| 2026-04-14 14:46 | 59.24330 | 24.41916 | 37221 ft | 442 kts | 32° |
| 2026-04-14 14:46 | 59.26865 | 24.45174 | 36773 ft | 440 kts | 32° |
| 2026-04-14 14:47 | 59.29441 | 24.48492 | 36118 ft | 441 kts | 32° |
| 2026-04-14 14:47 | 59.31991 | 24.51783 | 35467 ft | 442 kts | 32° |
| 2026-04-14 14:47 | 59.34543 | 24.55082 | 34859 ft | 441 kts | 32° |
| 2026-04-14 14:47 | 59.37087 | 24.58379 | 34267 ft | 440 kts | 32° |
| 2026-04-14 14:48 | 59.39591 | 24.61629 | 33643 ft | 440 kts | 32° |
| 2026-04-14 14:48 | 59.42158 | 24.64965 | 33052 ft | 440 kts | 32° |
| 2026-04-14 14:48 | 59.44665 | 24.68241 | 32458 ft | 440 kts | 33° |
| 2026-04-14 14:48 | 59.47216 | 24.71585 | 31876 ft | 440 kts | 33° |
| 2026-04-14 14:49 | 59.49758 | 24.74919 | 31285 ft | 440 kts | 33° |
| 2026-04-14 14:49 | 59.52271 | 24.78218 | 30705 ft | 440 kts | 33° |
| 2026-04-14 14:49 | 59.54814 | 24.81558 | 30085 ft | 439 kts | 34° |
| 2026-04-14 14:49 | 59.57344 | 24.84882 | 29461 ft | 439 kts | 34° |
| 2026-04-14 14:50 | 59.59855 | 24.88187 | 28956 ft | 434 kts | 34° |
| 2026-04-14 14:50 | 59.62338 | 24.91467 | 28492 ft | 429 kts | 34° |
| 2026-04-14 14:50 | 59.64778 | 24.94696 | 27965 ft | 425 kts | 35° |
| 2026-04-14 14:50 | 59.67226 | 24.97941 | 27394 ft | 421 kts | 35° |
| 2026-04-14 14:51 | 59.69631 | 25.01137 | 26803 ft | 417 kts | 35° |
| 2026-04-14 14:51 | 59.71993 | 25.04282 | 26247 ft | 413 kts | 35° |
| 2026-04-14 14:51 | 59.74357 | 25.07434 | 25673 ft | 409 kts | 35° |
| 2026-04-14 14:51 | 59.76709 | 25.10573 | 25133 ft | 404 kts | 36° |
| 2026-04-14 14:52 | 59.78994 | 25.13627 | 24768 ft | 396 kts | 36° |
| 2026-04-14 14:52 | 59.81255 | 25.16532 | 24610 ft | 381 kts | 33° |
| 2026-04-14 14:52 | 59.83457 | 25.18973 | 24917 ft | 347 kts | 30° |
| 2026-04-14 14:52 | 59.85566 | 25.21017 | 24651 ft | 333 kts | 27° |
| 2026-04-14 14:53 | 59.87645 | 25.22834 | 24389 ft | 319 kts | 26° |
| 2026-04-14 14:53 | 59.89634 | 25.24535 | 24125 ft | 305 kts | 25° |
| 2026-04-14 14:53 | 59.91522 | 25.26138 | 23880 ft | 292 kts | 26° |
| 2026-04-14 14:53 | 59.93357 | 25.27701 | 23632 ft | 280 kts | 26° |
| 2026-04-14 14:54 | 59.95112 | 25.29198 | 23381 ft | 269 kts | 26° |
| 2026-04-14 14:54 | 59.96799 | 25.30642 | 22958 ft | 265 kts | 26° |
| 2026-04-14 14:54 | 59.98509 | 25.32084 | 22274 ft | 270 kts | 23° |
| 2026-04-14 14:54 | 60.00334 | 25.32485 | 21870 ft | 272 kts | 353° |
| 2026-04-14 14:55 | 60.02103 | 25.31099 | 21454 ft | 272 kts | 338° |
| 2026-04-14 14:55 | 60.03799 | 25.29542 | 20984 ft | 269 kts | 341° |
| 2026-04-14 14:55 | 60.05538 | 25.28234 | 20488 ft | 266 kts | 345° |
| 2026-04-14 14:55 | 60.07287 | 25.27151 | 20016 ft | 263 kts | 348° |
| 2026-04-14 14:56 | 60.10771 | 25.25292 | 19034 ft | 259 kts | 349° |
| 2026-04-14 14:56 | 60.12507 | 25.24414 | 18584 ft | 257 kts | 350° |
| 2026-04-14 14:56 | 60.14227 | 25.23548 | 18113 ft | 256 kts | 350° |
| 2026-04-14 14:57 | 60.15957 | 25.22677 | 17642 ft | 255 kts | 349° |
| 2026-04-14 14:57 | 60.17666 | 25.21813 | 17156 ft | 253 kts | 350° |
| 2026-04-14 14:57 | 60.19344 | 25.20963 | 16596 ft | 252 kts | 350° |
| 2026-04-14 14:57 | 60.21049 | 25.20100 | 16146 ft | 249 kts | 350° |
| 2026-04-14 14:58 | 60.22656 | 25.19279 | 15818 ft | 233 kts | 350° |
| 2026-04-14 14:58 | 60.24196 | 25.18494 | 15250 ft | 229 kts | 350° |
| 2026-04-14 14:58 | 60.25720 | 25.17722 | 14658 ft | 228 kts | 350° |
| 2026-04-14 14:58 | 60.27255 | 25.16945 | 14078 ft | 226 kts | 350° |
| 2026-04-14 14:59 | 60.28766 | 25.16177 | 13517 ft | 225 kts | 350° |
| 2026-04-14 14:59 | 60.30261 | 25.15416 | 12971 ft | 223 kts | 350° |
| 2026-04-14 14:59 | 60.31748 | 25.14657 | 12434 ft | 222 kts | 349° |
| 2026-04-14 14:59 | 60.33234 | 25.13897 | 11893 ft | 220 kts | 349° |
| 2026-04-14 15:00 | 60.34707 | 25.13130 | 11356 ft | 219 kts | 348° |
| 2026-04-14 15:00 | 60.36141 | 25.12074 | 10825 ft | 220 kts | 340° |
| 2026-04-14 15:00 | 60.37497 | 25.10753 | 10312 ft | 219 kts | 336° |
| 2026-04-14 15:00 | 60.38846 | 25.09368 | 9797 ft | 217 kts | 336° |
| 2026-04-14 15:01 | 60.40176 | 25.07989 | 9305 ft | 216 kts | 336° |
| 2026-04-14 15:01 | 60.41502 | 25.06619 | 8777 ft | 214 kts | 336° |
| 2026-04-14 15:01 | 60.42815 | 25.05266 | 8274 ft | 212 kts | 336° |
| 2026-04-14 15:01 | 60.44111 | 25.03934 | 7780 ft | 210 kts | 336° |
| 2026-04-14 15:02 | 60.45412 | 25.02597 | 7295 ft | 208 kts | 336° |
| 2026-04-14 15:02 | 60.46688 | 25.01283 | 6859 ft | 206 kts | 336° |
| 2026-04-14 15:02 | 60.47942 | 24.99993 | 6391 ft | 205 kts | 336° |
| 2026-04-14 15:02 | 60.49214 | 24.98684 | 5883 ft | 203 kts | 336° |
| 2026-04-14 15:03 | 60.50300 | 24.96999 | 5453 ft | 200 kts | 308° |
| 2026-04-14 15:03 | 60.50813 | 24.94493 | 5207 ft | 189 kts | 278° |
| 2026-04-14 15:03 | 60.50515 | 24.92036 | 4736 ft | 186 kts | 225° |
| 2026-04-14 15:03 | 60.49363 | 24.91025 | 4275 ft | 182 kts | 187° |
| 2026-04-14 15:04 | 60.48102 | 24.90585 | 4045 ft | 180 kts | 185° |
| 2026-04-14 15:04 | 60.46904 | 24.90292 | 3734 ft | 170 kts | 181° |
| 2026-04-14 15:04 | 60.45712 | 24.90216 | 3445 ft | 177 kts | 175° |
| 2026-04-14 15:04 | 60.44458 | 24.90294 | 3332 ft | 180 kts | 173° |
| 2026-04-14 15:05 | 60.43217 | 24.90476 | 3106 ft | 183 kts | 175° |
| 2026-04-14 15:05 | 60.41930 | 24.90445 | 2557 ft | 183 kts | 175° |
| 2026-04-14 15:05 | 60.40680 | 24.90577 | 2211 ft | 180 kts | 173° |
| 2026-04-14 15:05 | 60.39469 | 24.90908 | 1788 ft | 174 kts | 165° |
| 2026-04-14 15:06 | 60.38314 | 24.91475 | 1315 ft | 172 kts | 162° |
| 2026-04-14 15:06 | 60.37228 | 24.92275 | 1023 ft | 158 kts | 156° |
| 2026-04-14 15:06 | 60.36298 | 24.93104 | 911 ft | 139 kts | 152° |
| 2026-04-14 15:06 | 60.35438 | 24.93961 | 672 ft | 135 kts | 152° |
| 2026-04-14 15:07 | 60.34613 | 24.94821 | 558 ft | 135 kts | 152° |
| 2026-04-14 15:07 | 60.33781 | 24.95672 | 411 ft | 134 kts | 151° |
| 2026-04-14 15:07 | 60.32968 | 24.96518 | 206 ft | 128 kts | 152° |
| 2026-04-14 15:07 | 60.32258 | 24.97254 | 171 ft | 90 kts | 154° |
| 2026-04-14 15:08 | 60.31819 | 24.97692 | 186 ft | 45 kts | 164° |
| 2026-04-14 15:08 | 60.31661 | 24.97554 | 188 ft | 17 kts | 246° |
| 2026-04-14 15:08 | 60.31655 | 24.97395 | 191 ft | 10 kts | 314° |
| 2026-04-14 15:08 | 60.31688 | 24.97289 | 192 ft | 8 kts | 263° |
| 2026-04-14 15:09 | 60.31673 | 24.97214 | 192 ft | 3 kts | 244° |
| 2026-04-14 15:09 | 60.31672 | 24.97208 | 192 ft | 0 kts | 244° |